createdAt,value
2023-01-15T00:00:43.743Z,4.18
2023-01-15T00:01:45.333Z,4.22
2023-01-15T00:02:46.969Z,4.29
2023-01-15T00:03:49.230Z,4.40
2023-01-15T00:04:51.765Z,4.46
2023-01-15T00:05:53.384Z,4.50
2023-01-15T00:06:54.990Z,4.58
2023-01-15T00:07:56.531Z,4.65
2023-01-15T00:08:58.915Z,4.75
2023-01-15T00:10:00.473Z,4.78
2023-01-15T00:11:05.866Z,4.85
2023-01-15T00:12:07.495Z,4.90
2023-01-15T00:13:09.209Z,4.94
2023-01-15T00:14:10.888Z,4.98
2023-01-15T00:15:14.511Z,5.02
2023-01-15T00:16:21.835Z,4.99
2023-01-15T00:17:23.461Z,5.03
2023-01-15T00:18:24.986Z,5.10
2023-01-15T00:19:26.524Z,5.12
2023-01-15T00:20:28.199Z,5.11
2023-01-15T00:21:31.989Z,5.01
2023-01-15T00:22:33.581Z,4.86
2023-01-15T00:23:54.041Z,4.66
2023-01-15T00:25:13.823Z,4.33
2023-01-15T00:26:36.793Z,4.11
2023-01-15T00:27:41.080Z,3.99
2023-01-15T00:28:42.831Z,3.97
2023-01-15T00:29:44.365Z,3.97
2023-01-15T00:30:46.006Z,3.95
2023-01-15T00:31:55.960Z,3.92
2023-01-15T00:32:59.134Z,3.93
2023-01-15T00:34:01.146Z,3.96
2023-01-15T00:35:02.734Z,3.95
2023-01-15T00:36:04.591Z,3.98
2023-01-15T00:37:06.210Z,4.01
2023-01-15T00:38:07.735Z,4.00
2023-01-15T00:39:09.283Z,4.00
2023-01-15T00:40:11.983Z,3.99
2023-01-15T00:41:13.579Z,3.96
2023-01-15T00:42:16.203Z,4.03
2023-01-15T00:43:17.719Z,4.13
2023-01-15T00:44:20.086Z,4.23
2023-01-15T00:45:21.992Z,4.32
2023-01-15T00:46:23.695Z,4.37
2023-01-15T00:47:25.542Z,4.42
2023-01-15T00:48:27.205Z,4.46
2023-01-15T00:49:28.997Z,4.52
2023-01-15T00:50:30.551Z,4.53
2023-01-15T00:51:32.885Z,4.47
2023-01-15T00:52:34.537Z,4.46
2023-01-15T00:53:36.097Z,4.50
2023-01-15T00:54:37.653Z,4.58
2023-01-15T00:55:39.196Z,4.69
2023-01-15T00:56:40.748Z,4.77
2023-01-15T00:57:42.336Z,4.83
2023-01-15T00:58:44.028Z,4.89
2023-01-15T00:59:45.621Z,4.89
2023-01-15T01:00:47.231Z,4.91
2023-01-15T01:01:51.194Z,4.89
2023-01-15T01:02:52.742Z,4.81
2023-01-15T01:03:54.307Z,4.72
2023-01-15T01:04:55.843Z,4.68
2023-01-15T01:06:02.219Z,4.64
2023-01-15T01:07:04.031Z,4.66
2023-01-15T01:08:05.636Z,4.68
2023-01-15T01:09:07.207Z,4.77
2023-01-15T01:10:09.517Z,4.80
2023-01-15T01:11:13.559Z,4.82
2023-01-15T01:12:15.223Z,4.89
2023-01-15T01:13:16.797Z,4.97
2023-01-15T01:14:18.418Z,5.03
2023-01-15T01:15:23.655Z,5.10
2023-01-15T01:16:37.793Z,5.17
2023-01-15T01:17:39.622Z,5.22
2023-01-15T01:18:41.160Z,5.25
2023-01-15T01:19:42.768Z,5.31
2023-01-15T01:20:44.263Z,5.32
2023-01-15T01:21:47.058Z,5.35
2023-01-15T01:22:49.656Z,5.45
2023-01-15T01:23:51.289Z,5.48
2023-01-15T01:24:52.804Z,5.53
2023-01-15T01:25:54.380Z,5.56
2023-01-15T01:26:56.042Z,5.59
2023-01-15T01:27:57.531Z,5.61
2023-01-15T01:28:59.081Z,5.62
2023-01-15T01:30:00.599Z,5.53
2023-01-15T01:31:06.446Z,5.53
2023-01-15T01:32:08.011Z,5.51
2023-01-15T01:33:09.668Z,5.50
2023-01-15T01:34:12.719Z,5.51
2023-01-15T01:35:14.293Z,5.53
2023-01-15T01:36:16.135Z,5.54
2023-01-15T01:37:17.655Z,5.52
2023-01-15T01:38:19.185Z,5.55
2023-01-15T01:39:20.755Z,5.55
2023-01-15T01:40:22.344Z,5.52
2023-01-15T01:41:24.477Z,5.44
2023-01-15T01:42:26.080Z,5.44
2023-01-15T01:43:30.088Z,5.45
2023-01-15T01:44:37.359Z,5.39
2023-01-15T01:45:38.967Z,5.36
2023-01-15T01:46:40.508Z,5.31
2023-01-15T01:47:42.056Z,5.27
2023-01-15T01:48:43.630Z,5.28
2023-01-15T01:49:46.773Z,5.30
2023-01-15T01:50:50.163Z,5.27
2023-01-15T01:51:59.234Z,5.31
2023-01-15T01:53:07.037Z,5.33
2023-01-15T01:54:11.036Z,5.36
2023-01-15T01:55:15.496Z,5.40
2023-01-15T01:56:20.504Z,5.41
2023-01-15T01:57:23.127Z,5.38
2023-01-15T01:58:30.997Z,5.32
2023-01-15T01:59:33.242Z,5.10
2023-01-15T02:00:36.779Z,4.97
2023-01-15T02:01:38.569Z,5.01
2023-01-15T02:02:43.918Z,5.11
2023-01-15T02:03:46.372Z,5.12
2023-01-15T02:04:48.702Z,5.09
2023-01-15T02:05:54.033Z,5.12
2023-01-15T02:06:56.649Z,5.17
2023-01-15T02:07:58.299Z,5.25
2023-01-15T02:08:59.921Z,5.26
2023-01-15T02:10:01.612Z,5.27
2023-01-15T02:11:03.766Z,5.17
2023-01-15T02:12:34.194Z,4.91
2023-01-15T02:13:43.146Z,4.74
2023-01-15T02:15:01.228Z,4.63
2023-01-15T02:16:34.488Z,4.63
2023-01-15T02:17:38.559Z,4.69
2023-01-15T02:18:51.478Z,4.78
2023-01-15T02:20:11.692Z,4.81
2023-01-15T02:21:47.171Z,4.83
2023-01-15T02:23:06.638Z,4.81
2023-01-15T02:24:12.507Z,4.89
2023-01-15T02:25:48.094Z,4.96
2023-01-15T02:27:04.911Z,5.03
2023-01-15T02:28:31.032Z,5.11
2023-01-15T02:29:59.249Z,5.16
2023-01-15T02:31:12.606Z,5.16
2023-01-15T02:32:20.314Z,5.17
2023-01-15T02:33:28.844Z,5.21
2023-01-15T02:34:35.316Z,5.27
2023-01-15T02:35:44.389Z,5.26
2023-01-15T02:36:53.000Z,5.19
2023-01-15T02:37:59.651Z,5.13
2023-01-15T02:39:06.383Z,5.06
2023-01-15T02:40:09.996Z,5.01
2023-01-15T02:41:16.572Z,4.86
2023-01-15T02:42:20.843Z,4.60
2023-01-15T02:43:24.044Z,4.46
2023-01-15T02:44:29.577Z,4.47
2023-01-15T02:45:35.058Z,4.62
2023-01-15T02:46:39.205Z,4.71
2023-01-15T02:47:44.513Z,4.81
2023-01-15T02:48:50.359Z,4.81
2023-01-15T02:49:55.545Z,4.79
2023-01-15T02:51:06.275Z,4.78
2023-01-15T02:52:17.033Z,4.84
2023-01-15T02:53:25.933Z,4.89
2023-01-15T02:54:34.127Z,4.83
2023-01-15T02:55:39.346Z,4.83
2023-01-15T02:56:45.534Z,4.87
2023-01-15T02:57:50.517Z,4.95
2023-01-15T02:58:57.762Z,4.88
2023-01-15T03:00:03.589Z,4.70
2023-01-15T03:01:15.222Z,4.53
2023-01-15T03:02:23.396Z,4.39
2023-01-15T03:03:39.470Z,4.31
2023-01-15T03:04:50.684Z,4.18
2023-01-15T03:05:57.075Z,4.09
2023-01-15T03:07:05.097Z,4.10
2023-01-15T03:08:08.630Z,4.08
2023-01-15T03:09:10.893Z,4.02
2023-01-15T03:10:13.139Z,4.03
2023-01-15T03:11:19.910Z,4.10
2023-01-15T03:12:57.540Z,4.17
2023-01-15T03:14:02.037Z,4.27
2023-01-15T03:15:42.576Z,4.28
2023-01-15T03:16:56.975Z,4.28
2023-01-15T03:17:59.133Z,4.29
2023-01-15T03:19:31.388Z,4.33
2023-01-15T03:20:33.314Z,4.36
2023-01-15T03:21:59.645Z,4.34
2023-01-15T03:23:09.386Z,4.35
2023-01-15T03:24:13.156Z,4.44
2023-01-15T03:25:27.049Z,4.57
2023-01-15T03:26:29.076Z,4.67
2023-01-15T03:27:30.738Z,4.77
2023-01-15T03:28:35.284Z,4.85
2023-01-15T03:29:43.559Z,4.94
2023-01-15T03:30:45.089Z,4.98
2023-01-15T03:31:46.739Z,5.04
2023-01-15T03:32:48.557Z,5.10
2023-01-15T03:33:50.478Z,5.15
2023-01-15T03:34:56.096Z,5.22
2023-01-15T03:36:00.501Z,5.31
2023-01-15T03:37:02.778Z,5.39
2023-01-15T03:38:04.428Z,5.40
2023-01-15T03:39:06.197Z,5.41
2023-01-15T03:40:08.428Z,5.39
2023-01-15T03:41:44.685Z,5.42
2023-01-15T03:43:16.845Z,5.51
2023-01-15T03:44:18.335Z,5.52
2023-01-15T03:45:37.710Z,5.55
2023-01-15T03:47:11.991Z,5.61
2023-01-15T03:48:30.182Z,5.56
2023-01-15T03:49:31.705Z,5.53
2023-01-15T03:50:50.001Z,5.53
2023-01-15T03:52:03.853Z,5.53
2023-01-15T03:53:18.118Z,5.54
2023-01-15T03:54:31.902Z,5.55
2023-01-15T03:55:43.141Z,5.58
2023-01-15T03:56:55.789Z,5.59
2023-01-15T03:58:05.626Z,5.62
2023-01-15T03:59:23.737Z,5.58
2023-01-15T04:00:36.507Z,5.50
2023-01-15T04:01:42.672Z,5.39
2023-01-15T04:02:47.175Z,5.28
2023-01-15T04:03:50.618Z,5.25
2023-01-15T04:04:54.868Z,5.25
2023-01-15T04:06:00.806Z,5.21
2023-01-15T04:07:03.985Z,5.16
2023-01-15T04:08:07.320Z,5.07
2023-01-15T04:09:11.162Z,5.09
2023-01-15T04:10:12.927Z,5.10
2023-01-15T04:11:23.394Z,5.01
2023-01-15T04:12:24.926Z,4.92
2023-01-15T04:13:29.343Z,4.85
2023-01-15T04:14:33.587Z,4.78
2023-01-15T04:15:35.165Z,4.73
2023-01-15T04:16:36.756Z,4.65
2023-01-15T04:17:38.605Z,4.60
2023-01-15T04:18:40.154Z,4.61
2023-01-15T04:19:43.657Z,4.68
2023-01-15T04:20:45.757Z,4.74
2023-01-15T04:21:47.392Z,4.80
2023-01-15T04:22:48.922Z,4.84
2023-01-15T04:23:50.904Z,4.83
2023-01-15T04:24:54.992Z,4.83
2023-01-15T04:25:56.961Z,4.77
2023-01-15T04:26:58.563Z,4.70
2023-01-15T04:28:00.170Z,4.77
2023-01-15T04:29:01.693Z,4.83
2023-01-15T04:30:03.562Z,4.91
2023-01-15T04:31:05.337Z,4.98
2023-01-15T04:32:07.052Z,5.05
2023-01-15T04:33:08.733Z,5.10
2023-01-15T04:34:10.340Z,5.14
2023-01-15T04:35:11.846Z,5.13
2023-01-15T04:36:14.603Z,5.17
2023-01-15T04:37:17.213Z,5.19
2023-01-15T04:38:18.737Z,5.25
2023-01-15T04:39:20.615Z,5.28
2023-01-15T04:40:40.823Z,5.31
2023-01-15T04:42:00.831Z,5.37
2023-01-15T04:43:20.602Z,5.43
2023-01-15T04:44:22.218Z,5.43
2023-01-15T04:45:23.785Z,5.43
2023-01-15T04:46:25.586Z,5.43
2023-01-15T04:47:30.174Z,5.44
2023-01-15T04:48:31.726Z,5.46
2023-01-15T04:49:34.902Z,5.46
2023-01-15T04:50:37.245Z,5.51
2023-01-15T04:51:40.322Z,5.53
2023-01-15T04:52:41.874Z,5.55
2023-01-15T04:53:43.473Z,5.56
2023-01-15T04:54:45.130Z,5.58
2023-01-15T04:55:46.730Z,5.57
2023-01-15T04:56:51.059Z,5.49
2023-01-15T04:57:52.637Z,5.33
2023-01-15T04:58:54.199Z,5.10
2023-01-15T04:59:55.713Z,4.88
2023-01-15T05:00:57.740Z,4.70
2023-01-15T05:02:04.676Z,4.59
2023-01-15T05:03:06.778Z,4.58
2023-01-15T05:04:08.822Z,4.32
2023-01-15T05:05:10.438Z,4.21
2023-01-15T05:06:14.377Z,4.23
2023-01-15T05:07:15.992Z,4.27
2023-01-15T05:08:17.643Z,4.26
2023-01-15T05:09:19.264Z,4.31
2023-01-15T05:10:20.790Z,4.42
2023-01-15T05:11:22.363Z,4.45
2023-01-15T05:12:23.915Z,4.50
2023-01-15T05:13:25.411Z,4.57
2023-01-15T05:14:27.114Z,4.63
2023-01-15T05:15:28.719Z,4.68
2023-01-15T05:16:31.280Z,4.70
2023-01-15T05:17:33.781Z,4.69
2023-01-15T05:18:35.595Z,4.66
2023-01-15T05:19:37.157Z,4.65
2023-01-15T05:20:38.719Z,4.64
2023-01-15T05:21:43.067Z,4.61
2023-01-15T05:22:47.152Z,4.62
2023-01-15T05:23:53.485Z,4.69
2023-01-15T05:24:55.056Z,4.68
2023-01-15T05:25:56.849Z,4.67
2023-01-15T05:27:00.262Z,4.75
2023-01-15T05:28:01.921Z,4.80
2023-01-15T05:29:04.642Z,4.86
2023-01-15T05:30:06.872Z,4.92
2023-01-15T05:31:10.940Z,4.94
2023-01-15T05:32:12.558Z,4.94
2023-01-15T05:33:14.206Z,4.98
2023-01-15T05:34:15.725Z,5.01
2023-01-15T05:35:17.379Z,5.05
2023-01-15T05:36:22.463Z,5.09
2023-01-15T05:37:23.945Z,5.14
2023-01-15T05:38:25.446Z,5.16
2023-01-15T05:39:26.992Z,5.22
2023-01-15T05:40:28.505Z,5.25
2023-01-15T05:41:49.045Z,5.27
2023-01-15T05:42:50.663Z,5.30
2023-01-15T05:43:52.350Z,5.33
2023-01-15T05:44:53.908Z,5.38
2023-01-15T05:45:55.491Z,5.41
2023-01-15T05:47:03.222Z,5.44
2023-01-15T05:48:05.078Z,5.47
2023-01-15T05:49:09.849Z,5.51
2023-01-15T05:50:11.518Z,5.54
2023-01-15T05:51:13.275Z,5.57
2023-01-15T05:52:14.774Z,5.61
2023-01-15T05:53:16.290Z,5.62
2023-01-15T05:54:23.506Z,5.61
2023-01-15T05:55:25.071Z,5.58
2023-01-15T05:56:26.786Z,5.53
2023-01-15T05:57:28.297Z,5.52
2023-01-15T05:58:29.860Z,5.83
2023-01-15T05:59:33.013Z,6.12
2023-01-15T06:00:34.636Z,6.23
2023-01-15T06:01:37.067Z,6.26
2023-01-15T06:02:38.690Z,6.26
2023-01-15T06:03:41.806Z,6.27
2023-01-15T06:04:43.396Z,6.28
2023-01-15T06:05:50.752Z,6.28
2023-01-15T06:06:54.294Z,6.29
2023-01-15T06:07:55.843Z,6.31
2023-01-15T06:08:57.470Z,6.30
2023-01-15T06:09:59.002Z,6.32
2023-01-15T06:11:00.600Z,6.32
2023-01-15T06:12:02.207Z,6.30
2023-01-15T06:13:03.723Z,6.30
2023-01-15T06:14:05.706Z,6.29
2023-01-15T06:15:07.701Z,6.26
2023-01-15T06:16:13.301Z,6.23
2023-01-15T06:17:15.232Z,6.18
2023-01-15T06:18:16.836Z,6.09
2023-01-15T06:19:18.444Z,6.08
2023-01-15T06:20:19.979Z,6.09
2023-01-15T06:21:21.713Z,6.08
2023-01-15T06:22:23.226Z,6.08
2023-01-15T06:23:24.894Z,6.07
2023-01-15T06:24:26.456Z,6.08
2023-01-15T06:25:28.022Z,6.05
2023-01-15T06:26:29.671Z,6.05
2023-01-15T06:27:31.232Z,6.03
2023-01-15T06:28:33.710Z,6.01
2023-01-15T06:29:35.263Z,5.95
2023-01-15T06:30:39.530Z,5.91
2023-01-15T06:31:41.116Z,5.90
2023-01-15T06:32:42.750Z,5.88
2023-01-15T06:33:44.707Z,5.87
2023-01-15T06:34:46.241Z,5.87
2023-01-15T06:35:47.809Z,5.85
2023-01-15T06:36:49.343Z,5.85
2023-01-15T06:37:51.521Z,5.84
2023-01-15T06:38:53.382Z,5.75
2023-01-15T06:39:54.937Z,5.66
2023-01-15T06:40:58.798Z,5.60
2023-01-15T06:42:18.923Z,5.61
2023-01-15T06:43:38.932Z,5.67
2023-01-15T06:44:58.685Z,5.67
2023-01-15T06:46:18.537Z,5.68
2023-01-15T06:47:21.824Z,5.70
2023-01-15T06:48:25.267Z,5.69
2023-01-15T06:49:26.772Z,5.71
2023-01-15T06:50:28.373Z,5.71
2023-01-15T06:51:31.282Z,5.70
2023-01-15T06:52:32.906Z,5.62
2023-01-15T06:53:36.413Z,5.60
2023-01-15T06:54:38.408Z,5.64
2023-01-15T06:55:40.030Z,5.70
2023-01-15T06:56:41.555Z,5.78
2023-01-15T06:57:43.351Z,5.89
2023-01-15T06:58:45.018Z,6.00
2023-01-15T06:59:47.466Z,6.06
2023-01-15T07:00:55.413Z,6.16
2023-01-15T07:01:56.990Z,6.25
2023-01-15T07:03:02.220Z,6.33
2023-01-15T07:04:04.053Z,6.38
2023-01-15T07:05:05.939Z,6.42
2023-01-15T07:06:13.540Z,6.50
2023-01-15T07:07:17.006Z,6.56
2023-01-15T07:08:18.554Z,6.61
2023-01-15T07:09:20.150Z,6.56
2023-01-15T07:10:21.658Z,6.58
2023-01-15T07:11:23.730Z,6.65
2023-01-15T07:12:25.521Z,6.67
2023-01-15T07:13:27.134Z,6.66
2023-01-15T07:14:28.696Z,6.69
2023-01-15T07:15:31.224Z,6.74
2023-01-15T07:16:34.030Z,6.76
2023-01-15T07:17:35.651Z,6.80
2023-01-15T07:18:37.179Z,6.80
2023-01-15T07:19:39.201Z,6.84
2023-01-15T07:20:40.743Z,6.87
2023-01-15T07:21:42.376Z,6.89
2023-01-15T07:22:43.891Z,6.93
2023-01-15T07:23:45.484Z,6.97
2023-01-15T07:24:47.003Z,7.03
2023-01-15T07:25:48.563Z,7.08
2023-01-15T07:26:50.139Z,6.95
2023-01-15T07:27:51.697Z,6.69
2023-01-15T07:28:53.520Z,6.47
2023-01-15T07:29:55.088Z,6.54
2023-01-15T07:30:58.818Z,6.65
2023-01-15T07:32:00.480Z,6.75
2023-01-15T07:33:02.108Z,6.87
2023-01-15T07:34:04.744Z,6.92
2023-01-15T07:35:06.402Z,7.00
2023-01-15T07:36:08.260Z,7.02
2023-01-15T07:37:11.430Z,7.01
2023-01-15T07:38:13.000Z,6.99
2023-01-15T07:39:15.001Z,7.04
2023-01-15T07:40:16.653Z,7.18
2023-01-15T07:41:37.149Z,7.38
2023-01-15T07:42:57.397Z,7.56
2023-01-15T07:44:17.730Z,7.68
2023-01-15T07:45:37.761Z,7.61
2023-01-15T07:46:58.148Z,7.74
2023-01-15T07:48:18.061Z,7.79
2023-01-15T07:49:38.007Z,7.79
2023-01-15T07:50:39.566Z,7.51
2023-01-15T07:51:41.083Z,7.51
2023-01-15T07:52:42.796Z,7.44
2023-01-15T07:53:44.372Z,7.24
2023-01-15T07:54:47.408Z,7.21
2023-01-15T07:55:48.932Z,7.20
2023-01-15T07:56:52.876Z,7.19
2023-01-15T07:57:55.335Z,7.12
2023-01-15T07:58:56.985Z,7.15
2023-01-15T07:59:58.538Z,7.16
2023-01-15T08:01:00.177Z,7.03
2023-01-15T08:02:01.939Z,6.99
2023-01-15T08:03:03.731Z,6.99
2023-01-15T08:04:05.401Z,7.00
2023-01-15T08:05:07.981Z,6.93
2023-01-15T08:06:09.535Z,6.91
2023-01-15T08:07:12.911Z,6.66
2023-01-15T08:08:18.234Z,6.74
2023-01-15T08:09:19.827Z,6.82
2023-01-15T08:10:21.489Z,6.71
2023-01-15T08:11:41.233Z,6.62
2023-01-15T08:13:01.179Z,6.49
2023-01-15T08:14:28.719Z,6.51
2023-01-15T08:15:38.591Z,6.64
2023-01-15T08:16:40.153Z,6.66
2023-01-15T08:17:44.374Z,6.62
2023-01-15T08:18:46.753Z,6.72
2023-01-15T08:19:48.358Z,6.75
2023-01-15T08:20:49.856Z,6.81
2023-01-15T08:21:51.756Z,6.94
2023-01-15T08:22:53.720Z,7.12
2023-01-15T08:23:55.327Z,7.19
2023-01-15T08:24:56.852Z,7.26
2023-01-15T08:26:01.935Z,7.23
2023-01-15T08:27:04.348Z,7.13
2023-01-15T08:28:05.907Z,7.05
2023-01-15T08:29:07.667Z,7.12
2023-01-15T08:30:13.019Z,7.15
2023-01-15T08:31:14.652Z,7.23
2023-01-15T08:32:16.258Z,7.07
2023-01-15T08:33:17.770Z,6.97
2023-01-15T08:34:19.358Z,7.07
2023-01-15T08:35:21.060Z,7.26
2023-01-15T08:36:22.614Z,7.33
2023-01-15T08:37:25.429Z,7.36
2023-01-15T08:38:27.064Z,7.29
2023-01-15T08:39:28.965Z,7.42
2023-01-15T08:40:30.502Z,7.52
2023-01-15T08:41:32.114Z,7.61
2023-01-15T08:42:33.937Z,7.60
2023-01-15T08:43:35.489Z,7.46
2023-01-15T08:44:37.105Z,7.43
2023-01-15T08:45:38.689Z,7.48
2023-01-15T08:46:40.224Z,7.58
2023-01-15T08:47:41.723Z,7.65
2023-01-15T08:48:44.689Z,7.65
2023-01-15T08:49:48.295Z,7.60
2023-01-15T08:50:50.648Z,7.67
2023-01-15T08:51:53.013Z,7.84
2023-01-15T08:52:54.613Z,7.88
2023-01-15T08:53:56.196Z,7.75
2023-01-15T08:54:57.775Z,7.76
2023-01-15T08:55:59.366Z,7.77
2023-01-15T08:57:01.485Z,7.75
2023-01-15T08:58:02.986Z,7.74
2023-01-15T08:59:08.330Z,7.77
2023-01-15T09:00:10.596Z,7.96
2023-01-15T09:01:15.914Z,7.96
2023-01-15T09:02:18.374Z,8.17
2023-01-15T09:03:20.045Z,8.18
2023-01-15T09:04:22.188Z,8.33
2023-01-15T09:05:23.822Z,8.50
2023-01-15T09:06:25.657Z,8.59
2023-01-15T09:07:27.257Z,8.57
2023-01-15T09:08:29.611Z,8.78
2023-01-15T09:09:31.262Z,9.00
2023-01-15T09:10:33.786Z,9.13
2023-01-15T09:11:36.321Z,9.29
2023-01-15T09:12:37.878Z,9.35
2023-01-15T09:13:39.539Z,9.45
2023-01-15T09:14:56.565Z,9.40
2023-01-15T09:16:05.286Z,9.10
2023-01-15T09:17:07.000Z,9.09
2023-01-15T09:18:10.710Z,9.19
2023-01-15T09:19:12.399Z,9.09
2023-01-15T09:20:14.548Z,9.12
2023-01-15T09:21:16.118Z,9.19
2023-01-15T09:22:17.644Z,9.14
2023-01-15T09:23:19.208Z,9.24
2023-01-15T09:24:20.756Z,9.25
2023-01-15T09:25:25.044Z,9.28
2023-01-15T09:26:31.273Z,9.47
2023-01-15T09:27:38.226Z,9.56
2023-01-15T09:28:41.709Z,9.71
2023-01-15T09:29:44.621Z,9.87
2023-01-15T09:30:46.951Z,9.98
2023-01-15T09:31:49.507Z,10.12
2023-01-15T09:32:51.539Z,9.94
2023-01-15T09:33:53.256Z,9.90
2023-01-15T09:34:54.855Z,9.87
2023-01-15T09:35:56.474Z,9.76
2023-01-15T09:36:57.976Z,9.76
2023-01-15T09:37:59.555Z,9.70
2023-01-15T09:39:02.451Z,9.72
2023-01-15T09:40:06.471Z,9.71
2023-01-15T09:41:34.870Z,9.72
2023-01-15T09:42:46.154Z,9.78
2023-01-15T09:44:00.433Z,9.87
2023-01-15T09:45:07.631Z,10.02
2023-01-15T09:46:32.793Z,10.27
2023-01-15T09:48:09.632Z,10.35
2023-01-15T09:49:38.689Z,10.22
2023-01-15T09:50:52.446Z,10.06
2023-01-15T09:52:19.847Z,9.54
2023-01-15T09:53:47.744Z,9.09
2023-01-15T09:54:54.084Z,8.84
2023-01-15T09:55:58.715Z,9.05
2023-01-15T09:57:02.291Z,9.31
2023-01-15T09:58:07.711Z,9.50
2023-01-15T09:59:34.807Z,9.43
2023-01-15T10:00:46.927Z,9.31
2023-01-15T10:01:50.859Z,9.35
2023-01-15T10:03:07.491Z,9.49
2023-01-15T10:04:31.075Z,9.53
2023-01-15T10:05:38.645Z,9.64
2023-01-15T10:06:56.499Z,9.69
2023-01-15T10:08:24.379Z,9.77
2023-01-15T10:09:35.410Z,9.87
2023-01-15T10:10:59.516Z,9.80
2023-01-15T10:12:35.307Z,9.90
2023-01-15T10:13:44.438Z,9.72
2023-01-15T10:15:27.841Z,9.59
2023-01-15T10:16:33.812Z,9.81
2023-01-15T10:17:48.798Z,9.90
2023-01-15T10:18:51.657Z,9.67
2023-01-15T10:19:55.678Z,9.53
2023-01-15T10:21:07.502Z,9.54
2023-01-15T10:22:24.331Z,9.80
2023-01-15T10:24:07.414Z,10.08
2023-01-15T10:25:21.647Z,10.25
2023-01-15T10:26:58.195Z,10.25
2023-01-15T10:28:18.108Z,10.30
2023-01-15T10:29:38.184Z,10.41
2023-01-15T10:30:52.292Z,10.35
2023-01-15T10:32:01.890Z,10.38
2023-01-15T10:33:30.509Z,10.25
2023-01-15T10:34:50.816Z,9.96
2023-01-15T10:36:03.153Z,9.96
2023-01-15T10:37:13.460Z,9.88
2023-01-15T10:38:35.676Z,9.70
2023-01-15T10:39:56.379Z,9.70
2023-01-15T10:41:11.187Z,9.76
2023-01-15T10:42:32.223Z,9.45
2023-01-15T10:44:03.364Z,9.34
2023-01-15T10:45:24.762Z,9.17
2023-01-15T10:46:39.902Z,9.25
2023-01-15T10:47:45.417Z,9.43
2023-01-15T10:48:55.471Z,9.64
2023-01-15T10:49:59.543Z,9.82
2023-01-15T10:51:04.585Z,9.95
2023-01-15T10:52:23.900Z,10.11
2023-01-15T10:53:25.404Z,10.26
2023-01-15T10:54:37.552Z,10.43
2023-01-15T10:55:44.135Z,10.50
2023-01-15T10:56:58.272Z,10.57
2023-01-15T10:58:14.788Z,10.57
2023-01-15T10:59:27.345Z,10.61
2023-01-15T11:00:28.905Z,10.74
2023-01-15T11:01:31.188Z,10.80
2023-01-15T11:02:39.876Z,10.90
2023-01-15T11:03:44.588Z,10.87
2023-01-15T11:04:46.193Z,10.74
2023-01-15T11:05:47.854Z,10.58
2023-01-15T11:06:49.497Z,10.60
2023-01-15T11:08:26.281Z,10.66
2023-01-15T11:09:22.644Z,10.75
2023-01-15T11:10:24.909Z,10.79
2023-01-15T11:11:59.287Z,10.84
2023-01-15T11:13:36.589Z,10.69
2023-01-15T11:15:00.262Z,10.68
2023-01-15T11:16:20.782Z,10.69
2023-01-15T11:17:50.179Z,10.77
2023-01-15T11:19:10.472Z,10.79
2023-01-15T11:20:29.523Z,10.83
2023-01-15T11:21:31.965Z,10.89
2023-01-15T11:22:38.862Z,10.96
2023-01-15T11:23:40.516Z,10.99
2023-01-15T11:24:54.774Z,10.95
2023-01-15T11:26:00.333Z,10.92
2023-01-15T11:27:02.036Z,10.89
2023-01-15T11:28:06.905Z,10.75
2023-01-15T11:29:19.743Z,10.68
2023-01-15T11:30:37.642Z,10.60
2023-01-15T11:31:41.266Z,10.64
2023-01-15T11:32:42.834Z,10.74
2023-01-15T11:34:02.133Z,10.75
2023-01-15T11:35:18.497Z,10.69
2023-01-15T11:36:23.636Z,10.70
2023-01-15T11:37:25.534Z,10.72
2023-01-15T11:38:47.476Z,10.69
2023-01-15T11:40:07.298Z,10.71
2023-01-15T11:41:45.916Z,10.29
2023-01-15T11:43:06.647Z,10.05
2023-01-15T11:44:29.082Z,9.94
2023-01-15T11:45:49.315Z,10.36
2023-01-15T11:47:13.780Z,10.31
2023-01-15T11:48:37.599Z,10.24
2023-01-15T11:49:57.447Z,10.27
2023-01-15T11:51:08.228Z,10.35
2023-01-15T11:52:17.693Z,10.38
2023-01-15T11:53:27.053Z,10.43
2023-01-15T11:54:30.795Z,10.39
2023-01-15T11:55:32.875Z,10.35
2023-01-15T11:56:36.329Z,10.41
2023-01-15T11:57:38.955Z,10.58
2023-01-15T11:58:43.235Z,10.66
2023-01-15T11:59:49.531Z,10.71
2023-01-15T12:00:55.357Z,10.71
2023-01-15T12:02:04.528Z,10.61
2023-01-15T12:03:18.909Z,10.63
2023-01-15T12:04:32.577Z,10.72
2023-01-15T12:05:37.423Z,10.83
2023-01-15T12:06:41.097Z,10.90
2023-01-15T12:07:43.049Z,10.92
2023-01-15T12:08:51.926Z,10.91
2023-01-15T12:10:44.488Z,10.90
2023-01-15T12:12:11.415Z,10.88
2023-01-15T12:13:37.297Z,10.85
2023-01-15T12:15:07.870Z,10.91
2023-01-15T12:16:34.478Z,10.97
2023-01-15T12:17:54.397Z,10.95
2023-01-15T12:19:29.091Z,11.00
2023-01-15T12:20:40.777Z,11.02
2023-01-15T12:21:51.213Z,11.06
2023-01-15T12:23:20.630Z,11.10
2023-01-15T12:24:49.081Z,11.14
2023-01-15T12:26:04.348Z,11.16
2023-01-15T12:27:17.869Z,11.14
2023-01-15T12:28:27.997Z,10.99
2023-01-15T12:29:39.415Z,10.88
2023-01-15T12:30:46.892Z,10.86
2023-01-15T12:31:55.149Z,10.82
2023-01-15T12:33:11.703Z,10.79
2023-01-15T12:34:23.583Z,10.81
2023-01-15T12:35:34.728Z,10.91
2023-01-15T12:37:59.008Z,10.92
2023-01-15T12:39:05.254Z,10.89
2023-01-15T12:40:06.718Z,10.83
2023-01-15T12:41:14.370Z,10.86
2023-01-15T12:42:41.121Z,10.83
2023-01-15T12:44:08.360Z,10.75
2023-01-15T12:45:15.765Z,10.74
2023-01-15T12:46:29.009Z,10.77
2023-01-15T12:48:02.394Z,10.74
2023-01-15T12:49:15.950Z,10.80
2023-01-15T12:50:38.879Z,10.77
2023-01-15T12:52:03.058Z,10.77
2023-01-15T12:53:26.033Z,10.71
2023-01-15T12:54:39.272Z,10.73
2023-01-15T12:55:49.450Z,10.64
2023-01-15T12:57:02.883Z,10.64
2023-01-15T12:58:12.731Z,10.62
2023-01-15T12:59:32.490Z,10.59
2023-01-15T13:00:43.439Z,10.66
2023-01-15T13:02:20.573Z,10.73
2023-01-15T13:03:30.506Z,10.78
2023-01-15T13:04:52.185Z,10.80
2023-01-15T13:06:00.251Z,10.84
2023-01-15T13:07:11.982Z,10.87
2023-01-15T13:08:30.608Z,10.89
2023-01-15T13:09:52.874Z,10.87
2023-01-15T13:10:54.421Z,10.83
2023-01-15T13:11:55.977Z,10.83
2023-01-15T13:13:11.498Z,10.83
2023-01-15T13:14:17.282Z,10.83
2023-01-15T13:15:21.828Z,10.85
2023-01-15T13:16:45.120Z,10.89
2023-01-15T13:18:14.583Z,10.86
2023-01-15T13:19:34.780Z,10.81
2023-01-15T13:20:39.260Z,10.87
2023-01-15T13:21:43.555Z,10.78
2023-01-15T13:23:17.854Z,10.78
2023-01-15T13:25:02.515Z,10.79
2023-01-15T13:26:22.174Z,10.86
2023-01-15T13:27:42.404Z,10.83
2023-01-15T13:29:24.621Z,10.85
2023-01-15T13:30:47.000Z,10.79
2023-01-15T13:31:58.776Z,10.84
2023-01-15T13:33:23.980Z,10.90
2023-01-15T13:34:37.570Z,10.83
2023-01-15T13:35:48.597Z,10.82
2023-01-15T13:36:52.770Z,10.83
2023-01-15T13:37:58.142Z,10.77
2023-01-15T13:39:03.026Z,10.74
2023-01-15T13:40:38.671Z,10.76
2023-01-15T13:41:58.834Z,10.75
2023-01-15T13:43:02.193Z,10.78
2023-01-15T13:44:04.028Z,10.83
2023-01-15T13:45:27.681Z,10.84
2023-01-15T13:46:29.714Z,10.92
2023-01-15T13:47:35.155Z,10.87
2023-01-15T13:48:45.420Z,10.77
2023-01-15T13:49:52.060Z,10.71
2023-01-15T13:50:58.845Z,10.72
2023-01-15T13:52:04.537Z,10.72
2023-01-15T13:53:15.362Z,10.69
2023-01-15T13:54:20.953Z,10.65
2023-01-15T13:55:34.125Z,10.62
2023-01-15T13:56:39.958Z,10.64
2023-01-15T13:57:43.095Z,10.57
2023-01-15T13:58:53.800Z,10.61
2023-01-15T13:59:55.428Z,10.61
2023-01-15T14:01:20.575Z,10.56
2023-01-15T14:02:28.737Z,10.57
2023-01-15T14:03:33.092Z,10.58
2023-01-15T14:04:38.691Z,10.61
2023-01-15T14:05:40.258Z,10.56
2023-01-15T14:06:50.558Z,10.48
2023-01-15T14:07:52.633Z,10.44
2023-01-15T14:08:55.384Z,10.44
2023-01-15T14:10:23.513Z,10.44
2023-01-15T14:12:00.032Z,10.34
2023-01-15T14:13:30.069Z,10.27
2023-01-15T14:14:50.368Z,10.24
2023-01-15T14:16:15.456Z,10.24
2023-01-15T14:18:00.895Z,10.17
2023-01-15T14:19:16.958Z,10.10
2023-01-15T14:20:36.912Z,10.06
2023-01-15T14:21:56.403Z,10.04
2023-01-15T14:23:05.793Z,10.01
2023-01-15T14:24:16.282Z,9.90
2023-01-15T14:25:35.964Z,9.80
2023-01-15T14:26:49.843Z,9.84
2023-01-15T14:28:22.248Z,9.83
2023-01-15T14:29:30.250Z,9.75
2023-01-15T14:31:12.291Z,9.69
2023-01-15T14:32:49.321Z,9.68
2023-01-15T14:34:03.073Z,9.63
2023-01-15T14:35:12.316Z,9.60
2023-01-15T14:36:46.015Z,9.58
2023-01-15T14:37:51.670Z,9.51
2023-01-15T14:38:58.639Z,9.48
2023-01-15T14:40:05.005Z,9.47
2023-01-15T14:41:07.442Z,9.44
2023-01-15T14:42:30.293Z,9.41
2023-01-15T14:43:36.146Z,9.31
2023-01-15T14:44:38.582Z,9.31
2023-01-15T14:45:46.746Z,9.29
2023-01-15T14:46:59.953Z,9.33
2023-01-15T14:48:06.973Z,9.27
2023-01-15T14:49:31.514Z,9.29
2023-01-15T14:50:42.371Z,9.28
2023-01-15T14:51:50.789Z,9.20
2023-01-15T14:52:56.264Z,9.16
2023-01-15T14:54:02.536Z,9.09
2023-01-15T14:55:08.724Z,9.09
2023-01-15T14:56:32.480Z,9.09
2023-01-15T14:57:34.227Z,9.03
2023-01-15T14:58:57.879Z,9.05
2023-01-15T15:00:04.144Z,9.03